sensor_id;sensor_type;location;lat;lon;timestamp;pressure;altitude;pressure_sealevel;temperature;humidity
85055;BME280;75391;48.300;16.352;2024-01-10T00:02:09;101497.88;;;-5.97;100.00
85055;BME280;75391;48.300;16.352;2024-01-10T00:04:34;101497.03;;;-5.78;100.00
85055;BME280;75391;48.300;16.352;2024-01-10T00:06:59;101491.06;;;-5.77;100.00
85055;BME280;75391;48.300;16.352;2024-01-10T00:09:25;101491.53;;;-5.86;100.00
85055;BME280;75391;48.300;16.352;2024-01-10T00:11:50;101495.03;;;-5.84;100.00
85055;BME280;75391;48.300;16.352;2024-01-10T00:14:15;101488.84;;;-5.70;100.00
85055;BME280;75391;48.300;16.352;2024-01-10T00:16:41;101484.97;;;-5.61;100.00
85055;BME280;75391;48.300;16.352;2024-01-10T00:19:06;101481.22;;;-5.86;100.00
85055;BME280;75391;48.300;16.352;2024-01-10T00:21:32;101480.34;;;-5.69;100.00
85055;BME280;75391;48.300;16.352;2024-01-10T00:23:57;101483.09;;;-6.01;100.00
85055;BME280;75391;48.300;16.352;2024-01-10T00:26:23;101484.72;;;-6.03;100.00
85055;BME280;75391;48.300;16.352;2024-01-10T00:28:48;101486.72;;;-5.78;100.00
85055;BME280;75391;48.300;16.352;2024-01-10T00:31:14;101473.63;;;-5.83;100.00
85055;BME280;75391;48.300;16.352;2024-01-10T00:33:40;101484.38;;;-5.74;100.00
85055;BME280;75391;48.300;16.352;2024-01-10T00:36:06;101483.56;;;-5.73;100.00
85055;BME280;75391;48.300;16.352;2024-01-10T00:38:31;101479.75;;;-5.81;100.00
85055;BME280;75391;48.300;16.352;2024-01-10T00:40:56;101485.38;;;-5.52;100.00
85055;BME280;75391;48.300;16.352;2024-01-10T00:43:22;101487.59;;;-5.60;100.00
85055;BME280;75391;48.300;16.352;2024-01-10T00:45:47;101486.84;;;-5.57;100.00
85055;BME280;75391;48.300;16.352;2024-01-10T00:48:13;101480.34;;;-5.69;100.00
85055;BME280;75391;48.300;16.352;2024-01-10T00:50:38;101480.25;;;-5.88;100.00
85055;BME280;75391;48.300;16.352;2024-01-10T00:53:03;101483.59;;;-5.53;100.00
85055;BME280;75391;48.300;16.352;2024-01-10T00:55:29;101485.44;;;-5.33;100.00
85055;BME280;75391;48.300;16.352;2024-01-10T00:57:54;101483.44;;;-5.39;100.00
85055;BME280;75391;48.300;16.352;2024-01-10T01:00:20;101488.44;;;-5.42;100.00
85055;BME280;75391;48.300;16.352;2024-01-10T01:02:45;101484.59;;;-5.32;100.00
85055;BME280;75391;48.300;16.352;2024-01-10T01:05:11;101491.56;;;-5.29;100.00
85055;BME280;75391;48.300;16.352;2024-01-10T01:07:36;101490.56;;;-5.33;100.00
85055;BME280;75391;48.300;16.352;2024-01-10T01:10:01;101496.13;;;-5.43;100.00
85055;BME280;75391;48.300;16.352;2024-01-10T01:12:27;101491.25;;;-5.37;100.00
85055;BME280;75391;48.300;16.352;2024-01-10T01:14:52;101497.63;;;-5.66;100.00
85055;BME280;75391;48.300;16.352;2024-01-10T01:17:18;101480.63;;;-5.62;100.00
85055;BME280;75391;48.300;16.352;2024-01-10T01:19:43;101482.13;;;-5.48;100.00
85055;BME280;75391;48.300;16.352;2024-01-10T01:22:09;101479.72;;;-5.45;100.00
85055;BME280;75391;48.300;16.352;2024-01-10T01:24:34;101476.66;;;-5.37;100.00
85055;BME280;75391;48.300;16.352;2024-01-10T01:26:59;101481.81;;;-5.37;100.00
85055;BME280;75391;48.300;16.352;2024-01-10T01:29:25;101485.22;;;-5.38;100.00
85055;BME280;75391;48.300;16.352;2024-01-10T01:31:50;101484.44;;;-5.35;100.00
85055;BME280;75391;48.300;16.352;2024-01-10T01:34:16;101488.31;;;-5.45;100.00
85055;BME280;75391;48.300;16.352;2024-01-10T01:36:41;101483.56;;;-5.35;100.00
85055;BME280;75391;48.300;16.352;2024-01-10T01:39:06;101486.81;;;-5.40;100.00
85055;BME280;75391;48.300;16.352;2024-01-10T01:41:32;101479.66;;;-5.65;100.00
85055;BME280;75391;48.300;16.352;2024-01-10T01:43:57;101487.22;;;-5.50;100.00
85055;BME280;75391;48.300;16.352;2024-01-10T01:46:23;101493.34;;;-5.66;100.00
85055;BME280;75391;48.300;16.352;2024-01-10T01:48:49;101489.84;;;-5.85;100.00
85055;BME280;75391;48.300;16.352;2024-01-10T01:51:15;101491.22;;;-5.74;100.00
85055;BME280;75391;48.300;16.352;2024-01-10T01:53:44;101485.25;;;-5.55;100.00
85055;BME280;75391;48.300;16.352;2024-01-10T01:56:10;101488.72;;;-5.73;100.00
85055;BME280;75391;48.300;16.352;2024-01-10T01:58:37;101490.19;;;-5.41;100.00
85055;BME280;75391;48.300;16.352;2024-01-10T02:01:04;101482.47;;;-5.41;100.00
85055;BME280;75391;48.300;16.352;2024-01-10T02:03:31;101482.88;;;-5.51;100.00
85055;BME280;75391;48.300;16.352;2024-01-10T02:05:57;101488.16;;;-5.48;100.00
85055;BME280;75391;48.300;16.352;2024-01-10T02:08:22;101486.31;;;-5.32;100.00
85055;BME280;75391;48.300;16.352;2024-01-10T02:10:48;101482.16;;;-5.29;100.00
85055;BME280;75391;48.300;16.352;2024-01-10T02:13:14;101478.63;;;-5.31;100.00
85055;BME280;75391;48.300;16.352;2024-01-10T02:15:39;101478.94;;;-5.43;100.00
85055;BME280;75391;48.300;16.352;2024-01-10T02:18:05;101480.88;;;-5.19;100.00
85055;BME280;75391;48.300;16.352;2024-01-10T02:20:30;101478.03;;;-5.25;100.00
85055;BME280;75391;48.300;16.352;2024-01-10T02:22:55;101482.03;;;-5.32;100.00
85055;BME280;75391;48.300;16.352;2024-01-10T02:25:21;101472.44;;;-5.34;100.00
85055;BME280;75391;48.300;16.352;2024-01-10T02:27:46;101471.78;;;-5.30;100.00
85055;BME280;75391;48.300;16.352;2024-01-10T02:30:12;101475.38;;;-5.27;100.00
85055;BME280;75391;48.300;16.352;2024-01-10T02:32:37;101479.06;;;-5.22;100.00
85055;BME280;75391;48.300;16.352;2024-01-10T02:35:03;101479.63;;;-5.47;100.00
85055;BME280;75391;48.300;16.352;2024-01-10T02:37:29;101484.88;;;-5.45;100.00
85055;BME280;75391;48.300;16.352;2024-01-10T02:39:54;101481.75;;;-5.38;100.00
85055;BME280;75391;48.300;16.352;2024-01-10T02:42:19;101485.00;;;-5.42;100.00
85055;BME280;75391;48.300;16.352;2024-01-10T02:44:45;101481.41;;;-5.64;100.00
85055;BME280;75391;48.300;16.352;2024-01-10T02:47:11;101484.03;;;-5.44;100.00
85055;BME280;75391;48.300;16.352;2024-01-10T02:49:37;101476.69;;;-5.54;100.00
85055;BME280;75391;48.300;16.352;2024-01-10T02:52:03;101474.94;;;-5.55;100.00
85055;BME280;75391;48.300;16.352;2024-01-10T02:54:28;101473.88;;;-5.41;100.00
85055;BME280;75391;48.300;16.352;2024-01-10T02:56:54;101471.00;;;-5.47;100.00
85055;BME280;75391;48.300;16.352;2024-01-10T02:59:19;101464.66;;;-5.36;100.00
85055;BME280;75391;48.300;16.352;2024-01-10T03:01:44;101467.84;;;-5.42;100.00
85055;BME280;75391;48.300;16.352;2024-01-10T03:04:10;101461.69;;;-5.45;100.00
85055;BME280;75391;48.300;16.352;2024-01-10T03:06:35;101466.28;;;-5.38;100.00
85055;BME280;75391;48.300;16.352;2024-01-10T03:09:01;101465.91;;;-5.46;100.00
85055;BME280;75391;48.300;16.352;2024-01-10T03:11:26;101472.44;;;-5.34;100.00
85055;BME280;75391;48.300;16.352;2024-01-10T03:14:01;101455.00;;;-5.40;100.00
85055;BME280;75391;48.300;16.352;2024-01-10T03:16:27;101454.81;;;-5.45;100.00
85055;BME280;75391;48.300;16.352;2024-01-10T03:18:52;101460.97;;;-5.60;100.00
85055;BME280;75391;48.300;16.352;2024-01-10T03:21:18;101458.94;;;-5.48;100.00
85055;BME280;75391;48.300;16.352;2024-01-10T03:23:43;101452.91;;;-5.49;100.00
85055;BME280;75391;48.300;16.352;2024-01-10T03:26:09;101451.75;;;-5.55;100.00
85055;BME280;75391;48.300;16.352;2024-01-10T03:28:35;101454.38;;;-5.54;100.00
85055;BME280;75391;48.300;16.352;2024-01-10T03:31:00;101462.06;;;-5.55;100.00
85055;BME280;75391;48.300;16.352;2024-01-10T03:33:25;101464.09;;;-5.48;100.00
85055;BME280;75391;48.300;16.352;2024-01-10T03:35:50;101457.19;;;-5.49;100.00
85055;BME280;75391;48.300;16.352;2024-01-10T03:38:16;101457.44;;;-5.62;100.00
85055;BME280;75391;48.300;16.352;2024-01-10T03:40:41;101452.31;;;-5.43;100.00
85055;BME280;75391;48.300;16.352;2024-01-10T03:43:07;101454.88;;;-5.62;100.00
85055;BME280;75391;48.300;16.352;2024-01-10T03:45:32;101453.75;;;-5.68;100.00
85055;BME280;75391;48.300;16.352;2024-01-10T03:47:57;101454.16;;;-5.58;100.00
85055;BME280;75391;48.300;16.352;2024-01-10T03:50:23;101450.88;;;-5.56;100.00
85055;BME280;75391;48.300;16.352;2024-01-10T03:52:48;101448.34;;;-5.74;100.00
85055;BME280;75391;48.300;16.352;2024-01-10T03:55:14;101451.31;;;-5.65;100.00
85055;BME280;75391;48.300;16.352;2024-01-10T03:57:39;101445.44;;;-5.62;100.00
85055;BME280;75391;48.300;16.352;2024-01-10T04:00:05;101451.03;;;-5.71;100.00
85055;BME280;75391;48.300;16.352;2024-01-10T04:02:31;101444.38;;;-5.85;100.00
85055;BME280;75391;48.300;16.352;2024-01-10T04:04:56;101450.34;;;-5.86;100.00
85055;BME280;75391;48.300;16.352;2024-01-10T04:07:22;101453.53;;;-6.09;100.00
85055;BME280;75391;48.300;16.352;2024-01-10T04:09:47;101442.59;;;-5.86;100.00
85055;BME280;75391;48.300;16.352;2024-01-10T04:12:13;101443.78;;;-5.79;100.00
85055;BME280;75391;48.300;16.352;2024-01-10T04:14:38;101448.69;;;-5.84;100.00
85055;BME280;75391;48.300;16.352;2024-01-10T04:17:03;101449.06;;;-5.76;100.00
85055;BME280;75391;48.300;16.352;2024-01-10T04:19:29;101437.94;;;-5.75;100.00
85055;BME280;75391;48.300;16.352;2024-01-10T04:21:54;101439.56;;;-5.77;100.00
85055;BME280;75391;48.300;16.352;2024-01-10T04:24:20;101446.47;;;-5.76;100.00
85055;BME280;75391;48.300;16.352;2024-01-10T04:26:45;101440.56;;;-5.93;100.00
85055;BME280;75391;48.300;16.352;2024-01-10T04:29:10;101442.00;;;-5.80;100.00
85055;BME280;75391;48.300;16.352;2024-01-10T04:31:36;101440.13;;;-5.65;100.00
85055;BME280;75391;48.300;16.352;2024-01-10T04:34:01;101441.41;;;-5.75;100.00
85055;BME280;75391;48.300;16.352;2024-01-10T04:36:27;101432.50;;;-5.81;100.00
85055;BME280;75391;48.300;16.352;2024-01-10T04:38:52;101437.22;;;-5.92;100.00
85055;BME280;75391;48.300;16.352;2024-01-10T04:41:18;101439.16;;;-5.86;100.00
85055;BME280;75391;48.300;16.352;2024-01-10T04:43:43;101444.94;;;-6.10;100.00
85055;BME280;75391;48.300;16.352;2024-01-10T04:46:09;101440.97;;;-5.84;100.00
85055;BME280;75391;48.300;16.352;2024-01-10T04:48:34;101435.75;;;-5.85;100.00
85055;BME280;75391;48.300;16.352;2024-01-10T04:50:59;101438.69;;;-5.97;100.00
85055;BME280;75391;48.300;16.352;2024-01-10T04:53:25;101432.66;;;-5.98;100.00
85055;BME280;75391;48.300;16.352;2024-01-10T04:55:50;101437.41;;;-6.05;100.00
85055;BME280;75391;48.300;16.352;2024-01-10T04:58:16;101435.38;;;-6.12;100.00
85055;BME280;75391;48.300;16.352;2024-01-10T05:00:41;101436.09;;;-5.97;100.00
85055;BME280;75391;48.300;16.352;2024-01-10T05:03:06;101436.66;;;-5.85;100.00
85055;BME280;75391;48.300;16.352;2024-01-10T05:05:32;101435.50;;;-5.92;100.00
85055;BME280;75391;48.300;16.352;2024-01-10T05:07:57;101437.06;;;-5.76;100.00
85055;BME280;75391;48.300;16.352;2024-01-10T05:10:22;101428.91;;;-5.85;100.00
85055;BME280;75391;48.300;16.352;2024-01-10T05:12:48;101430.38;;;-5.92;100.00
85055;BME280;75391;48.300;16.352;2024-01-10T05:15:13;101429.97;;;-5.99;100.00
85055;BME280;75391;48.300;16.352;2024-01-10T05:17:38;101424.41;;;-6.08;100.00
85055;BME280;75391;48.300;16.352;2024-01-10T05:20:05;101430.00;;;-6.17;100.00
85055;BME280;75391;48.300;16.352;2024-01-10T05:22:30;101431.19;;;-6.10;100.00
85055;BME280;75391;48.300;16.352;2024-01-10T05:24:56;101423.91;;;-6.19;100.00
85055;BME280;75391;48.300;16.352;2024-01-10T05:27:21;101425.75;;;-6.16;100.00
85055;BME280;75391;48.300;16.352;2024-01-10T05:29:46;101426.81;;;-6.29;100.00
85055;BME280;75391;48.300;16.352;2024-01-10T05:32:11;101430.22;;;-6.12;100.00
85055;BME280;75391;48.300;16.352;2024-01-10T05:34:37;101421.63;;;-6.31;100.00
85055;BME280;75391;48.300;16.352;2024-01-10T05:37:03;101425.53;;;-6.21;100.00
85055;BME280;75391;48.300;16.352;2024-01-10T05:39:28;101428.09;;;-6.21;100.00
85055;BME280;75391;48.300;16.352;2024-01-10T05:41:53;101418.16;;;-6.13;100.00
85055;BME280;75391;48.300;16.352;2024-01-10T05:44:19;101429.28;;;-6.14;100.00
85055;BME280;75391;48.300;16.352;2024-01-10T05:46:44;101422.06;;;-6.22;100.00
85055;BME280;75391;48.300;16.352;2024-01-10T05:49:09;101422.84;;;-6.23;100.00
85055;BME280;75391;48.300;16.352;2024-01-10T05:51:35;101418.41;;;-6.27;100.00
85055;BME280;75391;48.300;16.352;2024-01-10T05:54:00;101427.72;;;-6.11;100.00
85055;BME280;75391;48.300;16.352;2024-01-10T05:56:26;101432.19;;;-6.07;100.00
85055;BME280;75391;48.300;16.352;2024-01-10T05:58:51;101416.63;;;-6.28;100.00
85055;BME280;75391;48.300;16.352;2024-01-10T06:01:17;101425.22;;;-6.27;100.00
85055;BME280;75391;48.300;16.352;2024-01-10T06:03:42;101431.53;;;-6.38;100.00
85055;BME280;75391;48.300;16.352;2024-01-10T06:06:09;101427.94;;;-6.06;100.00
85055;BME280;75391;48.300;16.352;2024-01-10T06:08:34;101429.91;;;-6.01;100.00
85055;BME280;75391;48.300;16.352;2024-01-10T06:11:03;101428.81;;;-6.24;100.00
85055;BME280;75391;48.300;16.352;2024-01-10T06:13:28;101429.97;;;-6.35;100.00
85055;BME280;75391;48.300;16.352;2024-01-10T06:15:53;101425.66;;;-6.00;100.00
85055;BME280;75391;48.300;16.352;2024-01-10T06:18:19;101420.59;;;-5.99;100.00
85055;BME280;75391;48.300;16.352;2024-01-10T06:20:44;101426.25;;;-6.06;100.00
85055;BME280;75391;48.300;16.352;2024-01-10T06:23:10;101418.91;;;-5.98;100.00
85055;BME280;75391;48.300;16.352;2024-01-10T06:25:35;101429.84;;;-6.02;100.00
85055;BME280;75391;48.300;16.352;2024-01-10T06:28:00;101434.47;;;-6.13;100.00
85055;BME280;75391;48.300;16.352;2024-01-10T06:30:26;101425.13;;;-5.93;100.00
85055;BME280;75391;48.300;16.352;2024-01-10T06:32:51;101429.09;;;-6.00;100.00
85055;BME280;75391;48.300;16.352;2024-01-10T06:35:16;101428.69;;;-5.89;100.00
85055;BME280;75391;48.300;16.352;2024-01-10T06:37:42;101429.09;;;-6.00;100.00
85055;BME280;75391;48.300;16.352;2024-01-10T06:40:08;101438.00;;;-5.93;100.00
85055;BME280;75391;48.300;16.352;2024-01-10T06:42:33;101434.63;;;-5.92;100.00
85055;BME280;75391;48.300;16.352;2024-01-10T06:44:58;101446.47;;;-5.96;100.00
85055;BME280;75391;48.300;16.352;2024-01-10T06:47:24;101449.78;;;-5.98;100.00
85055;BME280;75391;48.300;16.352;2024-01-10T06:49:49;101446.88;;;-5.86;100.00
85055;BME280;75391;48.300;16.352;2024-01-10T06:52:15;101451.56;;;-5.97;100.00
85055;BME280;75391;48.300;16.352;2024-01-10T06:54:40;101452.16;;;-5.83;100.00
85055;BME280;75391;48.300;16.352;2024-01-10T06:57:06;101451.53;;;-6.33;100.00
85055;BME280;75391;48.300;16.352;2024-01-10T06:59:31;101456.75;;;-6.13;100.00
85055;BME280;75391;48.300;16.352;2024-01-10T07:01:56;101462.44;;;-6.21;100.00
85055;BME280;75391;48.300;16.352;2024-01-10T07:04:22;101462.22;;;-6.07;100.00
85055;BME280;75391;48.300;16.352;2024-01-10T07:06:48;101459.56;;;-6.09;100.00
85055;BME280;75391;48.300;16.352;2024-01-10T07:09:13;101450.81;;;-6.12;100.00
85055;BME280;75391;48.300;16.352;2024-01-10T07:11:38;101461.84;;;-6.33;100.00
85055;BME280;75391;48.300;16.352;2024-01-10T07:14:04;101453.38;;;-6.12;100.00
85055;BME280;75391;48.300;16.352;2024-01-10T07:16:29;101460.75;;;-5.83;100.00
85055;BME280;75391;48.300;16.352;2024-01-10T07:18:55;101461.28;;;-5.90;100.00
85055;BME280;75391;48.300;16.352;2024-01-10T07:21:20;101465.88;;;-5.65;100.00
85055;BME280;75391;48.300;16.352;2024-01-10T07:23:45;101473.41;;;-5.70;100.00
85055;BME280;75391;48.300;16.352;2024-01-10T07:26:13;101465.28;;;-5.59;100.00
85055;BME280;75391;48.300;16.352;2024-01-10T07:28:38;101465.47;;;-5.74;100.00
85055;BME280;75391;48.300;16.352;2024-01-10T07:31:04;101468.94;;;-5.74;100.00
85055;BME280;75391;48.300;16.352;2024-01-10T07:33:29;101465.22;;;-5.61;100.00
85055;BME280;75391;48.300;16.352;2024-01-10T07:35:54;101466.09;;;-5.60;100.00
85055;BME280;75391;48.300;16.352;2024-01-10T07:38:20;101471.59;;;-5.90;100.00
85055;BME280;75391;48.300;16.352;2024-01-10T07:40:45;101465.09;;;-5.82;100.00
85055;BME280;75391;48.300;16.352;2024-01-10T07:43:11;101474.13;;;-6.09;100.00
85055;BME280;75391;48.300;16.352;2024-01-10T07:45:36;101470.50;;;-5.58;100.00
85055;BME280;75391;48.300;16.352;2024-01-10T07:48:02;101468.69;;;-5.60;100.00
85055;BME280;75391;48.300;16.352;2024-01-10T07:50:27;101464.63;;;-5.55;100.00
85055;BME280;75391;48.300;16.352;2024-01-10T07:52:52;101467.88;;;-5.59;100.00
85055;BME280;75391;48.300;16.352;2024-01-10T07:55:18;101466.72;;;-5.84;100.00
85055;BME280;75391;48.300;16.352;2024-01-10T07:57:43;101464.31;;;-5.44;100.00
85055;BME280;75391;48.300;16.352;2024-01-10T08:00:09;101468.09;;;-5.35;100.00
85055;BME280;75391;48.300;16.352;2024-01-10T08:02:34;101468.34;;;-5.68;100.00
85055;BME280;75391;48.300;16.352;2024-01-10T08:05:02;101470.75;;;-5.34;100.00
85055;BME280;75391;48.300;16.352;2024-01-10T08:07:28;101480.66;;;-5.43;100.00
85055;BME280;75391;48.300;16.352;2024-01-10T08:09:53;101477.25;;;-5.42;100.00
85055;BME280;75391;48.300;16.352;2024-01-10T08:12:19;101476.75;;;-5.53;100.00
85055;BME280;75391;48.300;16.352;2024-01-10T08:14:44;101483.91;;;-5.65;100.00
85055;BME280;75391;48.300;16.352;2024-01-10T08:17:09;101485.97;;;-5.58;100.00
85055;BME280;75391;48.300;16.352;2024-01-10T08:19:35;101488.91;;;-5.50;100.00
85055;BME280;75391;48.300;16.352;2024-01-10T08:22:00;101483.13;;;-5.27;100.00
85055;BME280;75391;48.300;16.352;2024-01-10T08:24:26;101487.00;;;-5.54;100.00
85055;BME280;75391;48.300;16.352;2024-01-10T08:26:51;101490.25;;;-5.02;100.00
85055;BME280;75391;48.300;16.352;2024-01-10T08:29:17;101485.97;;;-5.01;100.00
85055;BME280;75391;48.300;16.352;2024-01-10T08:31:42;101490.97;;;-5.24;100.00
85055;BME280;75391;48.300;16.352;2024-01-10T08:34:08;101481.97;;;-4.95;100.00
85055;BME280;75391;48.300;16.352;2024-01-10T08:36:33;101474.28;;;-4.93;100.00
85055;BME280;75391;48.300;16.352;2024-01-10T08:38:58;101480.84;;;-4.80;100.00
85055;BME280;75391;48.300;16.352;2024-01-10T08:41:24;101479.53;;;-4.51;100.00
85055;BME280;75391;48.300;16.352;2024-01-10T08:43:49;101475.97;;;-4.55;100.00
85055;BME280;75391;48.300;16.352;2024-01-10T08:46:15;101480.59;;;-4.46;100.00
85055;BME280;75391;48.300;16.352;2024-01-10T08:48:40;101473.25;;;-4.37;100.00
85055;BME280;75391;48.300;16.352;2024-01-10T08:51:06;101481.78;;;-4.19;100.00
85055;BME280;75391;48.300;16.352;2024-01-10T08:53:31;101491.16;;;-4.21;100.00
85055;BME280;75391;48.300;16.352;2024-01-10T08:55:56;101483.41;;;-4.21;100.00
85055;BME280;75391;48.300;16.352;2024-01-10T08:58:22;101490.13;;;-4.04;100.00
85055;BME280;75391;48.300;16.352;2024-01-10T09:00:47;101488.94;;;-3.91;100.00
85055;BME280;75391;48.300;16.352;2024-01-10T09:03:13;101483.69;;;-3.92;100.00
85055;BME280;75391;48.300;16.352;2024-01-10T09:05:38;101491.75;;;-3.85;100.00
85055;BME280;75391;48.300;16.352;2024-01-10T09:08:04;101491.81;;;-3.83;100.00
85055;BME280;75391;48.300;16.352;2024-01-10T09:10:29;101489.72;;;-3.92;100.00
85055;BME280;75391;48.300;16.352;2024-01-10T09:12:54;101490.66;;;-3.69;100.00
85055;BME280;75391;48.300;16.352;2024-01-10T09:15:20;101491.06;;;-3.58;100.00
85055;BME280;75391;48.300;16.352;2024-01-10T09:17:45;101486.09;;;-3.54;100.00
85055;BME280;75391;48.300;16.352;2024-01-10T09:20:12;101490.59;;;-3.70;100.00
85055;BME280;75391;48.300;16.352;2024-01-10T09:22:38;101488.84;;;-3.49;100.00
85055;BME280;75391;48.300;16.352;2024-01-10T09:25:05;101480.09;;;-3.53;100.00
85055;BME280;75391;48.300;16.352;2024-01-10T09:27:33;101473.41;;;-3.47;100.00
85055;BME280;75391;48.300;16.352;2024-01-10T09:29:59;101477.13;;;-3.39;100.00
85055;BME280;75391;48.300;16.352;2024-01-10T09:32:25;101478.69;;;-3.20;100.00
85055;BME280;75391;48.300;16.352;2024-01-10T09:34:50;101475.88;;;-3.04;100.00
85055;BME280;75391;48.300;16.352;2024-01-10T09:37:15;101471.34;;;-3.10;100.00
85055;BME280;75391;48.300;16.352;2024-01-10T09:39:41;101462.25;;;-2.75;100.00
85055;BME280;75391;48.300;16.352;2024-01-10T09:42:06;101464.09;;;-2.96;100.00
85055;BME280;75391;48.300;16.352;2024-01-10T09:44:32;101453.44;;;-2.80;100.00
85055;BME280;75391;48.300;16.352;2024-01-10T09:46:58;101461.22;;;-2.80;100.00
85055;BME280;75391;48.300;16.352;2024-01-10T09:49:24;101454.53;;;-2.73;100.00
85055;BME280;75391;48.300;16.352;2024-01-10T09:51:51;101460.63;;;-2.73;100.00
85055;BME280;75391;48.300;16.352;2024-01-10T09:54:18;101458.38;;;-2.62;100.00
85055;BME280;75391;48.300;16.352;2024-01-10T09:56:45;101444.94;;;-2.52;100.00
85055;BME280;75391;48.300;16.352;2024-01-10T09:59:11;101448.31;;;-2.54;100.00
85055;BME280;75391;48.300;16.352;2024-01-10T10:01:37;101442.97;;;-2.59;100.00
85055;BME280;75391;48.300;16.352;2024-01-10T10:04:03;101436.44;;;-2.22;100.00
85055;BME280;75391;48.300;16.352;2024-01-10T10:06:28;101433.41;;;-2.36;100.00
85055;BME280;75391;48.300;16.352;2024-01-10T10:08:54;101434.00;;;-2.18;100.00
85055;BME280;75391;48.300;16.352;2024-01-10T10:11:19;101433.34;;;-2.10;100.00
85055;BME280;75391;48.300;16.352;2024-01-10T10:13:44;101430.66;;;-2.13;100.00
85055;BME280;75391;48.300;16.352;2024-01-10T10:16:10;101424.41;;;-1.93;100.00
85055;BME280;75391;48.300;16.352;2024-01-10T10:18:35;101436.72;;;-1.86;100.00
85055;BME280;75391;48.300;16.352;2024-01-10T10:21:11;101428.84;;;-1.89;100.00
85055;BME280;75391;48.300;16.352;2024-01-10T10:23:41;101431.50;;;-1.59;100.00
85055;BME280;75391;48.300;16.352;2024-01-10T10:28:39;101421.31;;;-1.53;100.00
85055;BME280;75391;48.300;16.352;2024-01-10T10:31:05;101423.94;;;-1.51;100.00
85055;BME280;75391;48.300;16.352;2024-01-10T10:33:32;101419.91;;;-1.42;100.00
85055;BME280;75391;48.300;16.352;2024-01-10T10:35:58;101422.34;;;-1.48;100.00
85055;BME280;75391;48.300;16.352;2024-01-10T10:38:23;101420.59;;;-1.17;100.00
85055;BME280;75391;48.300;16.352;2024-01-10T10:40:49;101415.31;;;-1.20;100.00
85055;BME280;75391;48.300;16.352;2024-01-10T10:43:18;101411.97;;;-1.16;100.00
85055;BME280;75391;48.300;16.352;2024-01-10T10:45:47;101408.72;;;-1.09;100.00
85055;BME280;75391;48.300;16.352;2024-01-10T10:48:17;101398.59;;;-1.00;100.00
85055;BME280;75391;48.300;16.352;2024-01-10T10:50:50;101408.72;;;-1.09;100.00
85055;BME280;75391;48.300;16.352;2024-01-10T10:53:19;101394.19;;;-1.02;100.00
85055;BME280;75391;48.300;16.352;2024-01-10T10:55:47;101393.56;;;-0.94;100.00
85055;BME280;75391;48.300;16.352;2024-01-10T10:58:13;101384.97;;;-0.91;100.00
85055;BME280;75391;48.300;16.352;2024-01-10T11:00:40;101382.06;;;-0.70;100.00
85055;BME280;75391;48.300;16.352;2024-01-10T11:03:08;101383.09;;;-0.64;100.00
85055;BME280;75391;48.300;16.352;2024-01-10T11:05:36;101381.72;;;-0.49;100.00
85055;BME280;75391;48.300;16.352;2024-01-10T11:08:07;101375.38;;;-0.61;100.00
85055;BME280;75391;48.300;16.352;2024-01-10T11:10:37;101377.38;;;-0.50;100.00
85055;BME280;75391;48.300;16.352;2024-01-10T11:13:27;101375.16;;;-0.35;100.00
85055;BME280;75391;48.300;16.352;2024-01-10T11:18:40;101366.41;;;-0.39;100.00
85055;BME280;75391;48.300;16.352;2024-01-10T11:21:28;101354.72;;;-0.20;100.00
85055;BME280;75391;48.300;16.352;2024-01-10T11:24:01;101347.69;;;-0.24;100.00
85055;BME280;75391;48.300;16.352;2024-01-10T11:26:27;101350.59;;;-0.12;100.00
85055;BME280;75391;48.300;16.352;2024-01-10T11:28:52;101333.47;;;-0.02;100.00
85055;BME280;75391;48.300;16.352;2024-01-10T11:31:28;101334.34;;;-0.02;100.00
85055;BME280;75391;48.300;16.352;2024-01-10T11:33:53;101336.78;;;-0.09;100.00
85055;BME280;75391;48.300;16.352;2024-01-10T11:36:20;101330.97;;;0.03;100.00
85055;BME280;75391;48.300;16.352;2024-01-10T11:39:14;101316.53;;;0.17;100.00
85055;BME280;75391;48.300;16.352;2024-01-10T11:41:39;101321.22;;;0.33;100.00
85055;BME280;75391;48.300;16.352;2024-01-10T11:46:39;101302.00;;;0.25;100.00
85055;BME280;75391;48.300;16.352;2024-01-10T11:49:14;101300.50;;;0.38;100.00
85055;BME280;75391;48.300;16.352;2024-01-10T11:51:46;101298.03;;;0.44;100.00
85055;BME280;75391;48.300;16.352;2024-01-10T11:57:01;101296.53;;;0.57;100.00
85055;BME280;75391;48.300;16.352;2024-01-10T11:59:26;101299.22;;;0.60;100.00
85055;BME280;75391;48.300;16.352;2024-01-10T12:01:52;101290.88;;;0.79;100.00
85055;BME280;75391;48.300;16.352;2024-01-10T12:04:19;101286.44;;;0.73;100.00
85055;BME280;75391;48.300;16.352;2024-01-10T12:06:45;101280.50;;;0.80;100.00
85055;BME280;75391;48.300;16.352;2024-01-10T12:09:10;101275.53;;;0.94;100.00
85055;BME280;75391;48.300;16.352;2024-01-10T12:11:35;101280.97;;;1.08;100.00
85055;BME280;75391;48.300;16.352;2024-01-10T12:14:04;101267.00;;;1.03;100.00
85055;BME280;75391;48.300;16.352;2024-01-10T12:16:32;101265.38;;;1.10;100.00
85055;BME280;75391;48.300;16.352;2024-01-10T12:18:57;101268.16;;;1.20;100.00
85055;BME280;75391;48.300;16.352;2024-01-10T12:21:23;101264.69;;;1.21;100.00
85055;BME280;75391;48.300;16.352;2024-01-10T12:23:48;101264.59;;;1.15;100.00
85055;BME280;75391;48.300;16.352;2024-01-10T12:26:14;101253.50;;;1.27;100.00
85055;BME280;75391;48.300;16.352;2024-01-10T12:28:40;101261.34;;;1.30;100.00
85055;BME280;75391;48.300;16.352;2024-01-10T12:31:06;101259.00;;;1.45;100.00
85055;BME280;75391;48.300;16.352;2024-01-10T12:33:31;101264.19;;;1.44;100.00
85055;BME280;75391;48.300;16.352;2024-01-10T12:36:10;101249.44;;;1.44;100.00